createdAt,value
2022-07-28T00:01:13.969Z,7.00
2022-07-28T00:03:46.536Z,8.50
2022-07-28T00:06:14.404Z,5.90
2022-07-28T00:08:42.217Z,8.60
2022-07-28T00:11:10.411Z,6.70
2022-07-28T00:13:38.201Z,8.30
2022-07-28T00:16:07.474Z,6.70
2022-07-28T00:18:35.701Z,8.00
2022-07-28T00:21:03.696Z,10.70
2022-07-28T00:23:35.927Z,7.20
2022-07-28T00:26:09.243Z,6.90
2022-07-28T00:28:37.320Z,7.80
2022-07-28T00:31:07.495Z,7.20
2022-07-28T00:33:38.010Z,7.00
2022-07-28T00:36:07.296Z,6.50
2022-07-28T00:38:38.119Z,7.70
2022-07-28T00:41:12.149Z,6.90
2022-07-28T00:43:45.358Z,5.60
2022-07-28T00:46:15.040Z,7.70
2022-07-28T00:48:54.483Z,7.20
2022-07-28T00:51:25.381Z,8.80
2022-07-28T00:53:54.846Z,7.20
2022-07-28T00:56:23.010Z,8.20
2022-07-28T00:58:51.540Z,7.30
2022-07-28T01:01:21.606Z,7.40
2022-07-28T01:03:55.676Z,6.50
2022-07-28T01:06:53.793Z,6.50
2022-07-28T01:09:37.044Z,5.80
2022-07-28T01:12:30.675Z,7.10
2022-07-28T01:15:23.435Z,8.50
2022-07-28T01:18:10.464Z,6.00
2022-07-28T01:20:54.474Z,8.60
2022-07-28T01:23:31.445Z,10.70
2022-07-28T01:26:23.689Z,6.50
2022-07-28T01:29:28.224Z,8.90
2022-07-28T01:32:08.652Z,6.50
2022-07-28T01:35:04.116Z,9.30
2022-07-28T01:37:33.549Z,6.10
2022-07-28T01:40:05.508Z,8.80
2022-07-28T01:42:41.121Z,6.30
2022-07-28T01:45:11.213Z,8.10
2022-07-28T01:47:41.045Z,6.30
2022-07-28T01:50:11.636Z,7.10
2022-07-28T01:52:42.044Z,8.90
2022-07-28T01:55:13.600Z,6.30
2022-07-28T01:57:43.212Z,6.10
2022-07-28T02:00:12.594Z,8.50
2022-07-28T02:02:43.998Z,7.10
2022-07-28T02:05:16.340Z,9.90
2022-07-28T02:07:48.336Z,8.80
2022-07-28T02:10:18.126Z,7.30
2022-07-28T02:12:50.116Z,6.20
2022-07-28T02:15:20.880Z,6.40
2022-07-28T02:17:52.158Z,7.30
2022-07-28T02:20:21.301Z,8.70
2022-07-28T02:22:53.351Z,7.90
2022-07-28T02:25:21.878Z,8.20
2022-07-28T02:27:55.505Z,6.50
2022-07-28T02:30:37.626Z,8.50
2022-07-28T02:33:58.713Z,8.50
2022-07-28T02:36:25.244Z,7.00
2022-07-28T02:38:56.589Z,6.30
2022-07-28T02:41:29.939Z,6.70
2022-07-28T02:44:01.958Z,7.60
2022-07-28T02:46:40.580Z,7.70
2022-07-28T02:49:22.152Z,9.30
2022-07-28T02:51:52.789Z,7.10
2022-07-28T02:54:23.648Z,7.50
2022-07-28T02:56:55.641Z,6.50
2022-07-28T02:59:24.780Z,8.80
2022-07-28T03:01:53.265Z,10.00
2022-07-28T03:04:41.344Z,8.00
2022-07-28T03:07:10.974Z,7.80
2022-07-28T03:09:44.721Z,9.20
2022-07-28T03:12:13.243Z,8.40
2022-07-28T03:14:41.878Z,7.80
2022-07-28T03:17:10.075Z,7.00
2022-07-28T03:19:38.230Z,7.70
2022-07-28T03:22:06.766Z,7.10
2022-07-28T03:24:41.617Z,7.20
2022-07-28T03:27:23.058Z,8.80
2022-07-28T03:29:59.121Z,12.00
2022-07-28T03:32:33.197Z,8.50
2022-07-28T03:35:01.391Z,8.30
2022-07-28T03:37:52.275Z,9.50
2022-07-28T03:40:21.988Z,8.10
2022-07-28T03:42:52.048Z,7.60
2022-07-28T03:45:20.809Z,9.90
2022-07-28T03:47:51.019Z,10.30
2022-07-28T03:50:22.962Z,7.00
2022-07-28T03:52:51.540Z,7.90
2022-07-28T03:55:20.087Z,8.00
2022-07-28T03:57:48.223Z,9.00
2022-07-28T04:00:17.630Z,11.00
2022-07-28T04:02:46.776Z,10.00
2022-07-28T04:05:17.073Z,10.80
2022-07-28T04:07:48.525Z,10.00
2022-07-28T04:10:17.525Z,10.70
2022-07-28T04:12:49.020Z,9.10
2022-07-28T04:15:18.206Z,11.30
2022-07-28T04:17:48.823Z,13.10
2022-07-28T04:20:18.183Z,10.20
2022-07-28T04:22:46.691Z,12.80
2022-07-28T04:25:17.031Z,12.10
2022-07-28T04:27:45.707Z,10.20
2022-07-28T04:30:18.651Z,14.00
2022-07-28T04:32:48.932Z,14.80
2022-07-28T04:35:18.237Z,10.00
2022-07-28T04:37:48.598Z,9.60
2022-07-28T04:40:17.142Z,8.60
2022-07-28T04:42:45.054Z,8.10
2022-07-28T04:45:13.104Z,9.40
2022-07-28T04:47:41.272Z,10.20
2022-07-28T04:50:10.988Z,10.30
2022-07-28T04:52:38.847Z,8.50
2022-07-28T04:55:07.532Z,8.30
2022-07-28T04:57:35.620Z,10.80
2022-07-28T05:00:12.459Z,7.50
2022-07-28T05:02:42.351Z,9.60
2022-07-28T05:05:10.834Z,9.10
2022-07-28T05:07:39.298Z,9.20
2022-07-28T05:10:09.652Z,10.70
2022-07-28T05:12:38.594Z,10.20
2022-07-28T05:15:07.549Z,8.20
2022-07-28T05:17:37.210Z,7.00
2022-07-28T05:20:06.838Z,7.80
2022-07-28T05:22:42.774Z,9.80
2022-07-28T05:25:15.787Z,8.70
2022-07-28T05:27:44.433Z,10.10
2022-07-28T05:30:14.213Z,8.80
2022-07-28T05:32:42.666Z,8.60
2022-07-28T05:35:10.649Z,10.60
2022-07-28T05:37:38.742Z,9.00
2022-07-28T05:40:16.082Z,8.00
2022-07-28T05:42:44.954Z,9.60
2022-07-28T05:45:15.934Z,7.70
2022-07-28T05:47:50.070Z,8.50
2022-07-28T05:50:22.430Z,9.60
2022-07-28T05:52:51.487Z,9.50
2022-07-28T05:55:19.441Z,8.60
2022-07-28T05:57:47.591Z,10.00
2022-07-28T06:00:18.483Z,7.20
2022-07-28T06:02:49.642Z,7.10
2022-07-28T06:05:26.257Z,10.90
2022-07-28T06:08:07.082Z,10.10
2022-07-28T06:10:59.553Z,8.40
2022-07-28T06:13:29.321Z,8.60
2022-07-28T06:15:59.010Z,6.80
2022-07-28T06:18:27.300Z,9.10
2022-07-28T06:20:59.114Z,8.70
2022-07-28T06:23:30.553Z,6.70
2022-07-28T06:25:58.302Z,10.00
2022-07-28T06:28:29.882Z,8.40
2022-07-28T06:30:58.759Z,8.90
2022-07-28T06:33:26.683Z,6.50
2022-07-28T06:35:54.854Z,6.70
2022-07-28T06:38:25.814Z,10.10
2022-07-28T06:40:53.824Z,6.90
2022-07-28T06:43:22.191Z,5.10
2022-07-28T06:45:51.620Z,5.90
2022-07-28T06:48:20.247Z,7.90
2022-07-28T06:50:48.209Z,5.80
2022-07-28T06:53:16.146Z,9.70
2022-07-28T06:59:02.605Z,6.20
2022-07-28T07:01:30.571Z,5.10
2022-07-28T07:03:58.610Z,5.10
2022-07-28T07:06:26.542Z,4.80
2022-07-28T07:08:54.394Z,5.40
2022-07-28T07:11:22.384Z,5.20
2022-07-28T07:13:50.522Z,5.30
2022-07-28T07:16:19.202Z,6.50
2022-07-28T07:18:48.526Z,5.50
2022-07-28T07:21:16.790Z,7.40
2022-07-28T07:23:45.133Z,7.90
2022-07-28T07:26:13.467Z,5.20
2022-07-28T07:28:42.744Z,6.70
2022-07-28T07:31:10.842Z,3.80
2022-07-28T07:33:38.640Z,5.90
2022-07-28T07:36:07.061Z,5.90
2022-07-28T07:38:35.170Z,7.00
2022-07-28T07:41:03.104Z,7.10
2022-07-28T07:43:31.480Z,6.40
2022-07-28T07:45:59.849Z,6.70
2022-07-28T07:48:27.666Z,9.10
2022-07-28T07:50:55.966Z,5.80
2022-07-28T07:53:24.402Z,8.90
2022-07-28T07:55:52.311Z,5.30
2022-07-28T07:58:20.672Z,5.60
2022-07-28T08:00:48.561Z,7.00
2022-07-28T08:03:16.922Z,7.10
2022-07-28T08:05:55.197Z,7.60
2022-07-28T08:08:24.378Z,6.60
2022-07-28T08:10:54.324Z,5.80
2022-07-28T08:13:26.149Z,7.80
2022-07-28T08:15:56.472Z,7.10
2022-07-28T08:18:25.529Z,5.10
2022-07-28T08:20:53.236Z,5.80
2022-07-28T08:23:25.902Z,6.20
2022-07-28T08:25:55.820Z,7.30
2022-07-28T08:28:23.984Z,6.90
2022-07-28T08:30:52.000Z,5.10
2022-07-28T08:33:22.162Z,4.80
2022-07-28T08:35:50.690Z,7.30
2022-07-28T08:38:18.580Z,5.10
2022-07-28T08:40:50.087Z,7.40
2022-07-28T12:22:36.881Z,5.40
2022-07-28T12:25:04.318Z,4.50
2022-07-28T12:27:40.139Z,3.80
2022-07-28T12:30:24.779Z,5.10
2022-07-28T12:32:51.967Z,4.20
2022-07-28T12:35:19.530Z,5.40
2022-07-28T12:37:48.651Z,4.30
2022-07-28T12:40:17.349Z,8.50
2022-07-28T12:42:53.975Z,6.90
2022-07-28T12:45:20.828Z,4.70
2022-07-28T12:47:47.386Z,4.60
2022-07-28T12:50:17.205Z,4.10
2022-07-28T13:02:09.143Z,7.80
2022-07-28T13:04:48.750Z,5.70
2022-07-28T13:07:25.343Z,5.00
2022-07-28T13:10:12.436Z,5.40
2022-07-28T13:12:39.380Z,5.10
2022-07-28T13:15:15.545Z,6.20
2022-07-28T13:17:50.578Z,4.60
2022-07-28T13:20:17.945Z,6.40
2022-07-28T13:22:45.087Z,5.00
2022-07-28T13:25:12.714Z,4.50
2022-07-28T13:27:40.356Z,6.10
2022-07-28T13:30:08.043Z,5.20
2022-07-28T13:32:34.733Z,6.80
2022-07-28T13:35:02.682Z,4.70
2022-07-28T13:37:29.332Z,6.50
2022-07-28T13:39:56.073Z,5.90
2022-07-28T13:42:23.697Z,5.70
2022-07-28T13:44:50.965Z,10.50
2022-07-28T13:47:18.684Z,4.00
2022-07-28T13:49:46.222Z,7.30
2022-07-28T13:52:16.556Z,4.60
2022-07-28T13:54:54.464Z,6.30
2022-07-28T13:57:21.130Z,4.60
2022-07-28T13:59:49.080Z,4.50
2022-07-28T14:02:17.148Z,6.00
2022-07-28T14:04:45.842Z,4.20
2022-07-28T14:07:20.556Z,4.60
2022-07-28T14:09:51.008Z,5.40
2022-07-28T14:12:19.138Z,4.00
2022-07-28T14:14:48.241Z,5.80
2022-07-28T14:23:14.570Z,10.50
2022-07-28T14:25:49.062Z,6.40
2022-07-28T14:28:16.392Z,14.50
2022-07-28T14:30:42.995Z,8.30
2022-07-28T14:33:09.441Z,7.00
2022-07-28T14:35:36.214Z,5.80
2022-07-28T14:38:49.707Z,5.30
2022-07-28T14:40:51.139Z,4.50
2022-07-28T14:43:17.786Z,4.30
2022-07-28T14:46:01.435Z,4.90
2022-07-28T14:48:32.069Z,4.20
2022-07-28T14:51:00.621Z,4.60
2022-07-28T14:53:27.919Z,6.30
2022-07-28T14:55:55.255Z,4.50
2022-07-28T16:15:34.210Z,4.10
2022-07-28T16:21:26.187Z,5.50
2022-07-28T16:23:53.827Z,3.80
2022-07-28T16:26:22.035Z,7.50
2022-07-28T16:28:49.941Z,4.20
2022-07-28T16:31:18.313Z,4.40
2022-07-28T16:33:46.455Z,4.70
2022-07-28T16:36:14.297Z,8.70
2022-07-28T16:38:42.729Z,22.10
2022-07-28T16:41:11.689Z,12.60
2022-07-28T16:43:45.151Z,8.20
2022-07-28T16:46:14.504Z,4.80
2022-07-28T16:48:42.840Z,5.10
2022-07-28T16:51:11.740Z,4.50
2022-07-28T16:53:39.795Z,6.80
2022-07-28T16:56:07.946Z,4.60
2022-07-28T16:58:37.860Z,4.60
2022-07-28T17:01:06.012Z,5.40
2022-07-28T17:03:33.890Z,5.00
2022-07-28T17:06:02.557Z,5.40
2022-07-28T17:08:30.725Z,6.00
2022-07-28T17:10:59.269Z,3.90
2022-07-28T17:13:28.561Z,5.20
2022-07-28T17:15:58.690Z,4.30
2022-07-28T17:18:26.690Z,4.70
2022-07-28T17:20:54.554Z,3.90
2022-07-28T17:23:22.712Z,5.90
2022-07-28T17:26:34.716Z,5.50
2022-07-28T17:28:38.905Z,4.30
2022-07-28T17:31:06.799Z,5.50
2022-07-28T17:33:34.965Z,5.80
2022-07-28T17:36:03.277Z,6.80
2022-07-28T17:38:33.265Z,7.30
2022-07-28T17:41:04.402Z,5.30
2022-07-28T17:43:35.097Z,3.50
2022-07-28T17:46:08.252Z,4.50
2022-07-28T17:48:39.062Z,6.20
2022-07-28T17:51:07.156Z,5.60
2022-07-28T17:53:39.245Z,6.40
2022-07-28T17:56:09.031Z,5.60
2022-07-28T17:58:38.767Z,4.30
2022-07-28T18:01:12.130Z,6.50
2022-07-28T18:03:59.424Z,6.70
2022-07-28T18:06:34.205Z,5.40
2022-07-28T18:09:12.339Z,9.10
2022-07-28T18:11:57.510Z,9.60
2022-07-28T18:14:28.013Z,16.90
2022-07-28T18:16:57.107Z,21.60
2022-07-28T18:19:27.095Z,15.90
2022-07-28T18:21:56.101Z,16.30
2022-07-28T18:24:24.551Z,16.20
2022-07-28T18:27:01.274Z,14.80
2022-07-28T18:29:38.265Z,15.70
2022-07-28T18:32:08.489Z,11.90
2022-07-28T18:34:40.592Z,13.20
2022-07-28T18:37:08.443Z,10.80
2022-07-28T18:39:36.444Z,11.40
2022-07-28T18:42:04.931Z,7.70
2022-07-28T18:44:32.989Z,9.30
2022-07-28T18:47:01.863Z,8.90
2022-07-28T18:49:37.659Z,8.00
2022-07-28T18:52:06.727Z,5.30
2022-07-28T18:54:34.803Z,11.80
2022-07-28T18:57:11.004Z,12.80
2022-07-28T18:59:44.566Z,15.00
2022-07-28T19:02:14.883Z,18.80
2022-07-28T19:04:43.852Z,24.50
2022-07-28T19:07:13.359Z,32.40
2022-07-28T19:09:42.399Z,28.90
2022-07-28T19:12:11.369Z,24.70
2022-07-28T19:14:39.410Z,28.40
2022-07-28T19:17:08.777Z,30.70
2022-07-28T19:19:38.092Z,26.00
2022-07-28T19:22:07.593Z,27.00
2022-07-28T19:24:35.696Z,30.40
2022-07-28T19:27:06.014Z,28.90
2022-07-28T19:29:35.201Z,30.90
2022-07-28T19:32:04.610Z,27.50
2022-07-28T19:34:32.988Z,22.60
2022-07-28T19:37:00.775Z,21.50
2022-07-28T19:39:32.194Z,25.40
2022-07-28T19:42:00.379Z,19.60
2022-07-28T19:44:30.195Z,23.20
2022-07-28T19:47:00.751Z,20.50
2022-07-28T19:49:29.367Z,20.60
2022-07-28T19:51:57.348Z,15.80
2022-07-28T19:54:25.385Z,18.60
2022-07-28T19:56:53.857Z,15.40
2022-07-28T19:59:23.682Z,15.10
2022-07-28T20:01:51.723Z,11.90
2022-07-28T20:04:20.195Z,11.50
2022-07-28T20:06:54.877Z,11.40
2022-07-28T20:09:23.965Z,10.90
2022-07-28T20:11:52.290Z,13.80
2022-07-28T20:14:20.137Z,10.70
2022-07-28T20:16:48.356Z,10.40
2022-07-28T20:19:17.498Z,11.80
2022-07-28T20:21:45.345Z,8.20
2022-07-28T20:24:13.937Z,7.30
2022-07-28T20:26:42.275Z,11.80
2022-07-28T20:29:10.084Z,8.30
2022-07-28T20:31:38.517Z,7.40
2022-07-28T20:34:06.987Z,12.40
2022-07-28T20:36:34.890Z,9.50
2022-07-28T20:39:15.764Z,11.30
2022-07-28T20:41:50.948Z,12.60
2022-07-28T20:44:28.899Z,14.40
2022-07-28T20:47:00.359Z,17.50
2022-07-28T20:49:29.818Z,17.50
2022-07-28T20:51:58.289Z,19.00
2022-07-28T20:54:26.436Z,16.20
2022-07-28T20:56:54.789Z,12.40
2022-07-28T20:59:27.716Z,10.70
2022-07-28T21:01:56.912Z,11.70
2022-07-28T21:04:26.425Z,11.90
2022-07-28T21:07:01.605Z,11.10
2022-07-28T21:09:30.633Z,12.20
2022-07-28T21:11:58.537Z,11.90
2022-07-28T21:14:26.373Z,20.70
2022-07-28T21:16:54.582Z,10.80
2022-07-28T21:19:22.464Z,14.50
2022-07-28T21:21:50.689Z,10.90
2022-07-28T21:24:19.410Z,10.80
2022-07-28T21:26:49.815Z,11.90
2022-07-28T21:32:04.740Z,9.00
2022-07-28T21:34:35.058Z,9.60
2022-07-28T21:37:07.056Z,10.60
2022-07-28T21:39:35.888Z,9.20
2022-07-28T21:42:07.775Z,11.60
2022-07-28T21:44:37.719Z,11.80
2022-07-28T21:47:06.006Z,10.20
2022-07-28T21:49:33.926Z,10.50
2022-07-28T21:52:01.942Z,9.80
2022-07-28T21:54:30.212Z,9.60
2022-07-28T21:56:58.122Z,10.30
2022-07-28T21:59:26.332Z,8.10
2022-07-28T22:01:54.916Z,10.10
2022-07-28T22:04:22.957Z,9.10
2022-07-28T22:06:54.221Z,9.50
2022-07-28T22:09:28.319Z,8.10
2022-07-28T22:11:56.338Z,7.60
2022-07-28T22:14:43.192Z,9.60
2022-07-28T22:17:11.522Z,9.50
2022-07-28T22:19:39.828Z,8.10
2022-07-28T22:22:07.720Z,8.20
2022-07-28T22:24:35.674Z,7.80
2022-07-28T22:27:04.118Z,9.60
2022-07-28T22:29:31.927Z,9.10
2022-07-28T22:31:59.917Z,11.70
2022-07-28T22:34:29.090Z,10.00
2022-07-28T22:36:57.096Z,10.40
2022-07-28T22:39:24.971Z,7.00
2022-07-28T22:41:52.980Z,7.30
2022-07-28T22:44:20.973Z,8.80
2022-07-28T22:46:48.753Z,9.70
2022-07-28T22:49:16.902Z,6.50
2022-07-28T22:51:48.141Z,7.50
2022-07-28T22:54:17.313Z,8.50
2022-07-28T22:56:45.518Z,7.50
2022-07-28T22:59:14.446Z,6.50
2022-07-28T23:01:45.646Z,7.80
2022-07-28T23:04:14.712Z,8.40
2022-07-28T23:06:43.393Z,8.10
2022-07-28T23:09:12.557Z,8.40
2022-07-28T23:11:40.530Z,6.40
2022-07-28T23:14:08.348Z,8.20
2022-07-28T23:16:36.329Z,9.50
2022-07-28T23:19:04.309Z,6.80
2022-07-28T23:21:32.040Z,7.60
2022-07-28T23:23:59.916Z,7.70
2022-07-28T23:26:28.041Z,6.20
2022-07-28T23:28:55.924Z,8.90
2022-07-28T23:31:23.920Z,7.70
2022-07-28T23:33:55.830Z,6.10
2022-07-28T23:36:27.874Z,10.80
2022-07-28T23:39:02.003Z,8.80
2022-07-28T23:41:30.085Z,6.90
2022-07-28T23:43:58.286Z,9.10
2022-07-28T23:46:26.149Z,7.60
2022-07-28T23:48:54.238Z,9.30
2022-07-28T23:51:22.743Z,7.20
2022-07-28T23:54:09.836Z,8.90
2022-07-28T23:56:38.297Z,8.30
2022-07-28T23:59:09.259Z,8.10
